Time;durP1;ratioP1;P1;durP2;ratioP2;P2;SDS_P1;SDS_P2;PMS_P1;PMS_P2;Temp;Humidity;BMP_temperature;BMP_pressure;BME280_temperature;BME280_humidity;BME280_pressure;Samples;Min_cycle;Max_cycle;Signal;HPM_P1;HPM_P2
2022/06/09 00:00:54;;;;;;;;;;;;;;;24.18;37.31;99861.25;5077032;28;19917;-68
2022/06/09 00:03:22;;;;;;;;;;;;;;;24.17;37.39;99865.91;5076610;28;20347;-68
2022/06/09 00:05:47;;;;;;;;;;;;;;;24.16;37.55;99864.31;5076772;28;19916;-68
2022/06/09 00:08:12;;;;;;;;;;;;;;;24.17;37.26;99859.66;5076836;28;19920;-68
2022/06/09 00:10:41;;;;;;;;;;;;;;;24.16;37.48;99860.75;5058991;28;19983;-68
2022/06/09 00:13:06;;;;;;;;;;;;;;;24.15;37.25;99862.66;5058862;28;19916;-68
2022/06/09 00:15:32;;;;;;;;;;;;;;;24.15;37.48;99867.31;5076813;28;20343;-68
2022/06/09 00:17:57;;;;;;;;;;;;;;;24.14;37.41;99861.03;5076333;28;19916;-68
2022/06/09 00:20:22;;;;;;;;;;;;;;;24.14;37.25;99869.22;5077506;28;19924;-68
2022/06/09 00:22:47;;;;;;;;;;;;;;;24.14;37.43;99866.50;5076348;28;19917;-68
2022/06/09 00:25:13;;;;;;;;;;;;;;;24.14;37.18;99861.03;5062545;28;19930;-68
2022/06/09 00:27:38;;;;;;;;;;;;;;;24.14;37.14;99868.41;5078757;28;19965;-70
2022/06/09 00:30:04;;;;;;;;;;;;;;;24.14;37.18;99862.97;5096639;28;20385;-69
2022/06/09 00:32:29;;;;;;;;;;;;;;;24.15;37.25;99862.66;5096434;28;20289;-69
2022/06/09 00:34:54;;;;;;;;;;;;;;;24.13;37.05;99864.09;5096404;28;19916;-70
2022/06/09 00:37:20;;;;;;;;;;;;;;;24.13;37.42;99864.88;5096270;28;19923;-69
2022/06/09 00:39:45;;;;;;;;;;;;;;;24.13;37.22;99870.34;5096768;28;19922;-69
2022/06/09 00:42:10;;;;;;;;;;;;;;;24.13;37.12;99873.06;5096776;28;19999;-69
2022/06/09 00:44:36;;;;;;;;;;;;;;;24.13;37.08;99870.34;5096210;28;19916;-69
2022/06/09 00:47:08;;;;;;;;;;;;;;;24.13;36.98;99858.63;5078090;28;20286;-69
2022/06/09 00:49:34;;;;;;;;;;;;;;;24.13;37.04;99862.16;5096903;28;19920;-69
2022/06/09 00:52:00;;;;;;;;;;;;;;;24.11;37.21;99855.34;5078219;28;19916;-69
2022/06/09 00:54:26;;;;;;;;;;;;;;;24.12;36.99;99862.44;5096035;28;20019;-69
2022/06/09 00:57:00;;;;;;;;;;;;;;;24.10;37.10;99853.75;5096131;28;19916;-68
2022/06/09 00:59:27;;;;;;;;;;;;;;;24.09;36.96;99866.56;5096362;28;19916;-68
2022/06/09 01:01:57;;;;;;;;;;;;;;;24.11;37.20;99858.06;5078189;28;20019;-69
2022/06/09 01:04:23;;;;;;;;;;;;;;;24.09;37.08;99858.38;5096127;28;19959;-70
2022/06/09 01:06:49;;;;;;;;;;;;;;;24.10;37.11;99862.72;5078018;28;19916;-68
2022/06/09 01:09:15;;;;;;;;;;;;;;;24.09;37.14;99866.56;5096000;28;19916;-68
2022/06/09 01:11:41;;;;;;;;;;;;;;;24.09;36.91;99858.38;5077977;28;19964;-68
2022/06/09 01:14:06;;;;;;;;;;;;;;;24.08;36.93;99862.22;5095774;28;19920;-68
2022/06/09 01:16:52;;;;;;;;;;;;;;;24.09;37.22;99861.09;5077589;28;19927;-68
2022/06/09 01:19:23;;;;;;;;;;;;;;;24.09;37.10;99863.81;5096085;28;20274;-68
2022/06/09 01:21:58;;;;;;;;;;;;;;;24.09;37.11;99860.28;5095852;28;19938;-68
2022/06/09 01:24:26;;;;;;;;;;;;;;;24.07;36.99;99857.84;5095777;28;19927;-68
2022/06/09 01:26:56;;;;;;;;;;;;;;;24.07;36.92;99868.75;5095213;28;19920;-68
2022/06/09 01:29:31;;;;;;;;;;;;;;;24.07;37.22;99871.50;5077208;28;19916;-68
2022/06/09 01:32:02;;;;;;;;;;;;;;;24.08;37.11;99866.88;5077309;28;19958;-68
2022/06/09 01:34:27;;;;;;;;;;;;;;;24.07;36.94;99866.03;5095205;28;19923;-68
2022/06/09 01:37:01;;;;;;;;;;;;;;;24.08;37.02;99866.88;5095374;28;20019;-68
2022/06/09 01:39:45;;;;;;;;;;;;;;;24.08;37.05;99866.88;5077409;28;20002;-68
2022/06/09 01:42:19;;;;;;;;;;;;;;;24.08;36.88;99867.69;5095386;28;19970;-68
2022/06/09 01:44:45;;;;;;;;;;;;;;;24.07;36.92;99871.50;5095449;28;19920;-68
2022/06/09 01:47:10;;;;;;;;;;;;;;;24.08;36.84;99864.13;5077056;28;19923;-68
2022/06/09 01:49:35;;;;;;;;;;;;;;;24.07;36.89;99866.03;5077291;28;19923;-68
2022/06/09 01:52:00;;;;;;;;;;;;;;;24.07;37.01;99871.50;5095317;28;19916;-68
2022/06/09 01:54:27;;;;;;;;;;;;;;;24.06;37.02;99869.88;5077241;28;19926;-68
2022/06/09 01:56:56;;;;;;;;;;;;;;;24.05;36.88;99868.25;5077552;28;19966;-68
2022/06/09 01:59:24;;;;;;;;;;;;;;;24.05;36.86;99868.25;5076882;28;19916;-68
2022/06/09 02:02:05;;;;;;;;;;;;;;;24.06;36.71;99869.88;5077116;28;19944;-68
2022/06/09 02:04:38;;;;;;;;;;;;;;;24.06;36.70;99869.06;5076903;28;19916;-69
2022/06/09 02:07:03;;;;;;;;;;;;;;;24.05;36.68;99873.72;5076900;28;19920;-69
2022/06/09 02:09:29;;;;;;;;;;;;;;;24.04;36.75;99866.59;5094484;28;19916;-69
2022/06/09 02:11:55;;;;;;;;;;;;;;;24.03;36.45;99862.28;5094599;28;20011;-70
2022/06/09 02:14:21;;;;;;;;;;;;;;;24.03;36.86;99859.53;5076623;28;19920;-69
2022/06/09 02:16:46;;;;;;;;;;;;;;;24.03;36.48;99854.09;5094813;28;19927;-69
2022/06/09 02:19:11;;;;;;;;;;;;;;;24.04;36.65;99863.88;5094582;28;20343;-69
2022/06/09 02:21:36;;;;;;;;;;;;;;;24.03;36.45;99854.09;5094393;28;19916;-69
2022/06/09 02:24:02;;;;;;;;;;;;;;;24.02;36.52;99866.09;5076440;28;19916;-69
2022/06/09 02:26:27;;;;;;;;;;;;;;;24.03;36.46;99861.47;5094183;28;19926;-68
2022/06/09 02:28:52;;;;;;;;;;;;;;;24.03;36.43;99861.47;5094219;28;19924;-70
2022/06/09 02:31:18;;;;;;;;;;;;;;;24.03;36.59;99865.00;5094075;28;19938;-69
2022/06/09 02:33:43;;;;;;;;;;;;;;;24.04;36.22;99872.06;5094430;28;19954;-69
2022/06/09 02:36:08;;;;;;;;;;;;;;;24.03;36.49;99872.38;5094305;28;19942;-69
2022/06/09 02:38:34;;;;;;;;;;;;;;;24.02;36.46;99868.81;5094406;28;20379;-69
2022/06/09 02:40:59;;;;;;;;;;;;;;;24.02;36.50;99870.75;5094066;28;19961;-69
2022/06/09 02:43:24;;;;;;;;;;;;;;;24.02;36.45;99862.56;5094243;28;20065;-69
2022/06/09 02:45:50;;;;;;;;;;;;;;;24.03;36.28;99865.00;5095644;28;19969;-69
2022/06/09 02:48:16;;;;;;;;;;;;;;;24.03;36.34;99867.72;5094037;28;20355;-69
2022/06/09 02:50:41;;;;;;;;;;;;;;;24.02;36.25;99863.38;5093971;28;19955;-70
2022/06/09 02:53:07;;;;;;;;;;;;;;;24.02;36.29;99857.09;5094198;28;19916;-70
2022/06/09 02:55:33;;;;;;;;;;;;;;;24.01;36.18;99861.75;5093970;28;19916;-69
2022/06/09 02:57:58;;;;;;;;;;;;;;;24.01;36.25;99861.75;5094043;28;20286;-69
2022/06/09 03:00:23;;;;;;;;;;;;;;;24.02;36.43;99849.72;5094215;28;20354;-69
2022/06/09 03:02:52;;;;;;;;;;;;;;;24.04;36.50;99849.44;5094070;28;20358;-69
2022/06/09 03:05:17;;;;;;;;;;;;;;;24.07;36.36;99868.75;5094079;28;19961;-69
2022/06/09 03:07:42;;;;;;;;;;;;;;;24.10;36.49;99860.00;5093632;28;19920;-69
2022/06/09 03:10:08;;;;;;;;;;;;;;;24.12;36.39;99863.25;5094448;28;19922;-69
2022/06/09 03:12:33;;;;;;;;;;;;;;;24.15;36.01;99859.94;5093803;28;19927;-69
2022/06/09 03:14:58;;;;;;;;;;;;;;;24.17;36.15;99859.66;5094598;28;19923;-69
2022/06/09 03:17:25;;;;;;;;;;;;;;;24.22;36.20;99856.06;5094114;28;19925;-69
2022/06/09 03:19:50;;;;;;;;;;;;;;;24.25;36.14;99864.47;5093823;28;19944;-69
2022/06/09 03:22:15;;;;;;;;;;;;;;;24.27;36.00;99869.66;5094465;28;20421;-69
2022/06/09 03:24:42;;;;;;;;;;;;;;;24.31;36.02;99874.22;5080267;28;20286;-70
2022/06/09 03:27:07;;;;;;;;;;;;;;;24.33;35.83;99869.28;5097665;28;20271;-68
2022/06/09 03:29:32;;;;;;;;;;;;;;;24.35;35.90;99875.28;5098053;28;19931;-68
2022/06/09 03:31:58;;;;;;;;;;;;;;;24.39;36.07;99872.78;5097894;28;20396;-68
2022/06/09 03:34:23;;;;;;;;;;;;;;;24.40;35.91;99877.09;5097469;28;19927;-68
2022/06/09 03:36:49;;;;;;;;;;;;;;;24.43;35.84;99879.25;5097394;28;19923;-68
2022/06/09 03:39:14;;;;;;;;;;;;;;;24.48;35.76;99875.66;5097704;28;20334;-69
2022/06/09 03:41:39;;;;;;;;;;;;;;;24.49;35.70;99875.38;5097772;28;19953;-70
2022/06/09 03:44:04;;;;;;;;;;;;;;;24.51;35.72;99873.16;5097775;28;19924;-69
2022/06/09 03:46:30;;;;;;;;;;;;;;;24.55;35.63;99876.94;5097361;28;19916;-69
2022/06/09 03:48:55;;;;;;;;;;;;;;;24.55;35.77;99882.41;5097284;28;19916;-69
2022/06/09 03:51:20;;;;;;;;;;;;;;;24.58;35.63;99886.50;5097559;28;19916;-69
2022/06/09 03:53:45;;;;;;;;;;;;;;;24.60;35.37;99872.53;5097484;28;19958;-69
2022/06/09 03:56:12;;;;;;;;;;;;;;;24.62;35.20;99878.50;5096976;28;19916;-69
2022/06/09 03:58:37;;;;;;;;;;;;;;;24.62;35.26;99876.59;5097285;28;19967;-69
2022/06/09 04:01:02;;;;;;;;;;;;;;;24.65;35.48;99877.94;5097237;28;20470;-69
2022/06/09 04:03:29;;;;;;;;;;;;;;;24.66;35.33;99876.81;5097248;28;19937;-69
2022/06/09 04:05:54;;;;;;;;;;;;;;;24.67;35.38;99881.19;5097011;28;19916;-69
2022/06/09 04:08:20;;;;;;;;;;;;;;;24.69;35.19;99885.22;5078819;28;20419;-69
2022/06/09 04:10:45;;;;;;;;;;;;;;;24.71;35.15;99876.75;5096801;28;20331;-69
2022/06/09 04:13:10;;;;;;;;;;;;;;;24.73;35.24;99886.28;5096586;28;19970;-69
2022/06/09 04:15:37;;;;;;;;;;;;;;;24.74;34.96;99887.88;5096697;28;20009;-69
2022/06/09 04:18:04;;;;;;;;;;;;;;;24.76;34.83;99881.34;5096954;28;20350;-69
2022/06/09 04:20:29;;;;;;;;;;;;;;;24.78;34.96;99879.91;5096455;28;19924;-69
2022/06/09 04:22:54;;;;;;;;;;;;;;;24.79;35.17;99880.75;5096974;28;19916;-69
2022/06/09 04:25:20;;;;;;;;;;;;;;;24.80;34.91;99877.72;5095924;28;20019;-70
2022/06/09 04:27:45;;;;;;;;;;;;;;;24.82;34.71;99880.97;5096544;28;19916;-70
2022/06/09 04:30:11;;;;;;;;;;;;;;;24.85;34.69;99891.31;5096375;28;20381;-69
2022/06/09 04:32:36;;;;;;;;;;;;;;;24.87;34.83;99882.78;5096629;28;19916;-69
2022/06/09 04:35:02;;;;;;;;;;;;;;;24.89;34.66;99894.28;5096121;28;20323;-69
2022/06/09 04:40:11;;;;;;;;;;;;;;;24.94;34.52;99894.19;5096093;28;19939;-69
2022/06/09 04:42:37;;;;;;;;;;;;;;;24.96;34.53;99893.88;5096119;28;20338;-68
2022/06/09 04:45:02;;;;;;;;;;;;;;;24.99;34.50;99896.03;5096334;28;19916;-70
2022/06/09 04:47:27;;;;;;;;;;;;;;;24.98;34.42;99899.88;5096258;28;19917;-69
2022/06/09 04:49:53;;;;;;;;;;;;;;;25.01;34.38;99904.72;5096116;28;20337;-69
2022/06/09 04:52:18;;;;;;;;;;;;;;;25.03;34.35;99894.34;5095923;28;20278;-69
2022/06/09 04:54:43;;;;;;;;;;;;;;;25.04;34.50;99887.75;5096150;28;19920;-68
2022/06/09 04:57:08;;;;;;;;;;;;;;;25.08;34.28;99894.25;5096129;28;19924;-68
2022/06/09 04:59:34;;;;;;;;;;;;;;;25.08;34.40;99894.25;5095935;28;19916;-68
2022/06/09 05:01:59;;;;;;;;;;;;;;;25.09;34.18;99891.22;5095797;28;19916;-68
2022/06/09 05:04:24;;;;;;;;;;;;;;;25.12;34.07;99887.09;5096375;28;20012;-70
2022/06/09 05:06:51;;;;;;;;;;;;;;;25.10;34.29;99889.31;5077812;28;20073;-70
2022/06/09 05:09:17;;;;;;;;;;;;;;;25.14;34.35;99887.59;5096085;28;19916;-69
2022/06/09 05:11:42;;;;;;;;;;;;;;;25.13;34.13;99891.44;5095576;28;19923;-68
2022/06/09 05:14:07;;;;;;;;;;;;;;;25.17;33.91;99889.75;5095243;28;19975;-68
2022/06/09 05:16:32;;;;;;;;;;;;;;;25.19;33.96;99887.50;5095543;28;19970;-69
2022/06/09 05:18:58;;;;;;;;;;;;;;;25.22;34.07;99886.13;5095469;28;19978;-69
2022/06/09 05:21:23;;;;;;;;;;;;;;;25.21;33.95;99877.09;5095229;28;20002;-68
2022/06/09 05:23:48;;;;;;;;;;;;;;;25.21;33.89;99892.69;5095057;28;19923;-69
2022/06/09 05:26:13;;;;;;;;;;;;;;;25.25;33.83;99875.44;5094849;28;19920;-69
2022/06/09 05:28:39;;;;;;;;;;;;;;;25.29;33.75;99878.38;5077257;28;19916;-69
2022/06/09 05:31:04;;;;;;;;;;;;;;;25.32;33.55;99874.22;5095156;28;20362;-68
2022/06/09 05:33:29;;;;;;;;;;;;;;;25.34;33.61;99889.22;5095262;28;20003;-69
2022/06/09 05:35:55;;;;;;;;;;;;;;;25.33;33.51;99876.66;5094810;28;19916;-69
2022/06/09 05:46:32;;;;;;;;;;;;;;;25.37;33.19;99882.34;5094589;28;19923;-70
2022/06/09 05:48:57;;;;;;;;;;;;;;;25.42;33.05;99890.47;5094809;28;20011;-70
2022/06/09 05:51:23;;;;;;;;;;;;;;;25.42;33.25;99872.16;5095319;28;20258;-70
2022/06/09 05:53:48;;;;;;;;;;;;;;;25.47;33.05;99873.97;5094854;28;19916;-70
2022/06/09 05:56:13;;;;;;;;;;;;;;;25.48;32.91;99872.84;5095064;28;19920;-70
2022/06/09 05:58:38;;;;;;;;;;;;;;;25.52;33.23;99870.34;5094231;28;19917;-69
2022/06/09 06:01:05;;;;;;;;;;;;;;;25.46;33.21;99866.88;5094348;28;19920;-69
2022/06/09 06:03:30;;;;;;;;;;;;;;;25.44;32.90;99866.34;5094505;28;19916;-70
2022/06/09 06:08:40;;;;;;;;;;;;;;;25.50;32.85;99873.38;5094813;28;20273;-71
2022/06/09 06:11:05;;;;;;;;;;;;;;;25.57;32.52;99878.47;5094284;28;20010;-70
2022/06/09 06:13:30;;;;;;;;;;;;;;;25.53;32.20;99878.25;5094313;28;19959;-70
2022/06/09 06:15:55;;;;;;;;;;;;;;;25.58;32.45;99875.41;5094043;28;19973;-71
2022/06/09 06:18:21;;;;;;;;;;;;;;;25.56;32.39;99877.66;5093914;28;19967;-69
2022/06/09 06:20:46;;;;;;;;;;;;;;;25.57;32.06;99879.25;5093540;28;19916;-71
2022/06/09 06:23:11;;;;;;;;;;;;;;;25.57;31.99;99878.47;5093855;28;19916;-69
2022/06/09 06:25:37;;;;;;;;;;;;;;;25.61;31.77;99885.78;5093606;28;19920;-70
2022/06/09 06:28:02;;;;;;;;;;;;;;;25.60;32.22;99880.59;5076192;28;20351;-69
2022/06/09 06:30:27;;;;;;;;;;;;;;;25.64;31.98;99881.59;5093562;28;19920;-69
2022/06/09 06:32:52;;;;;;;;;;;;;;;25.67;31.61;99881.81;5093818;28;20031;-69
2022/06/09 06:35:17;;;;;;;;;;;;;;;25.73;31.65;99881.72;5093932;28;19916;-69
2022/06/09 06:37:43;;;;;;;;;;;;;;;25.75;31.54;99882.22;5093495;28;20342;-69
2022/06/09 06:40:09;;;;;;;;;;;;;;;25.74;31.54;99888.84;5093431;28;19916;-69
2022/06/09 06:42:35;;;;;;;;;;;;;;;25.65;31.62;99880.50;5075163;28;20362;-70
2022/06/09 06:45:00;;;;;;;;;;;;;;;25.70;31.69;99877.69;5093571;28;19948;-69
2022/06/09 06:47:25;;;;;;;;;;;;;;;25.55;31.99;99886.97;5093178;28;20265;-69
2022/06/09 06:49:50;;;;;;;;;;;;;;;25.74;31.87;99888.84;5093490;28;19938;-69
2022/06/09 06:52:16;;;;;;;;;;;;;;;25.76;31.62;99883.88;5093109;28;19970;-69
2022/06/09 06:54:41;;;;;;;;;;;;;;;25.78;31.46;99887.09;5093060;28;19958;-69
2022/06/09 06:57:07;;;;;;;;;;;;;;;25.86;31.30;99880.94;5092948;28;19999;-72
2022/06/09 06:59:33;;;;;;;;;;;;;;;25.89;31.07;99874.03;5093306;28;19916;-71
2022/06/09 07:01:58;;;;;;;;;;;;;;;25.98;30.77;99878.53;5075624;28;19916;-73
2022/06/09 07:04:24;;;;;;;;;;;;;;;26.10;30.37;99880.78;5093763;28;19920;-73
2022/06/09 07:06:49;;;;;;;;;;;;;;;25.92;30.43;99878.91;5093062;28;19916;-70
2022/06/09 07:09:14;;;;;;;;;;;;;;;25.93;30.97;99873.13;5093377;28;19916;-71
2022/06/09 07:11:40;;;;;;;;;;;;;;;25.89;31.25;99885.81;5093492;28;19973;-71
2022/06/09 07:14:05;;;;;;;;;;;;;;;25.97;30.79;99881.59;5093489;28;19927;-69
2022/06/09 07:16:30;;;;;;;;;;;;;;;25.94;30.82;99883.00;5093517;28;19920;-69
2022/06/09 07:18:55;;;;;;;;;;;;;;;25.93;30.84;99875.88;5093293;28;20026;-71
2022/06/09 07:21:21;;;;;;;;;;;;;;;26.11;30.37;99881.59;5092862;28;19916;-70
2022/06/09 07:23:46;;;;;;;;;;;;;;;26.22;29.94;99874.81;5075373;28;19916;-69
2022/06/09 07:26:11;;;;;;;;;;;;;;;26.32;29.73;99885.56;5092622;28;20358;-70
2022/06/09 07:28:36;;;;;;;;;;;;;;;26.43;29.93;99878.72;5092964;28;20327;-71
2022/06/09 07:31:03;;;;;;;;;;;;;;;26.41;29.80;99874.69;5093710;28;19922;-68
2022/06/09 07:33:29;;;;;;;;;;;;;;;26.45;29.90;99880.38;5093042;28;19916;-69
2022/06/09 07:35:56;;;;;;;;;;;;;;;26.42;29.98;99877.13;5092867;28;19961;-69
2022/06/09 07:38:21;;;;;;;;;;;;;;;26.48;29.66;99885.25;5093208;28;19924;-70
2022/06/09 07:40:46;;;;;;;;;;;;;;;26.51;29.95;99873.66;5092862;28;19923;-69
2022/06/09 07:43:11;;;;;;;;;;;;;;;26.49;30.08;99881.38;5093036;28;19920;-70
2022/06/09 07:45:37;;;;;;;;;;;;;;;26.51;29.79;99879.13;5093814;28;19920;-68
2022/06/09 07:48:03;;;;;;;;;;;;;;;26.65;29.87;99882.69;5092907;28;19924;-69
2022/06/09 07:50:28;;;;;;;;;;;;;;;26.58;30.02;99880.34;5092876;28;19923;-69
2022/06/09 07:52:53;;;;;;;;;;;;;;;26.45;30.26;99881.16;5092817;28;20285;-70
2022/06/09 07:55:22;;;;;;;;;;;;;;;26.45;30.13;99891.31;5092898;28;19991;-69
2022/06/09 07:57:47;;;;;;;;;;;;;;;26.40;30.34;99889.50;5092997;28;20311;-69
2022/06/09 08:00:13;;;;;;;;;;;;;;;26.46;30.24;99892.94;5092524;28;19916;-70
2022/06/09 08:02:39;;;;;;;;;;;;;;;26.49;30.25;99889.59;5093338;28;19920;-69
2022/06/09 08:05:04;;;;;;;;;;;;;;;26.39;30.39;99905.13;5076184;28;19981;-69
2022/06/09 08:07:29;;;;;;;;;;;;;;;26.51;30.09;99895.56;5093882;28;20272;-70
2022/06/09 08:09:55;;;;;;;;;;;;;;;26.53;29.97;99904.31;5096766;28;19916;-70
2022/06/09 08:12:20;;;;;;;;;;;;;;;26.49;29.79;99903.28;5097565;28;19920;-69
2022/06/09 08:14:45;;;;;;;;;;;;;;;26.51;29.99;99906.53;5078212;28;19947;-68
2022/06/09 08:17:11;;;;;;;;;;;;;;;26.50;29.96;99911.19;5098381;28;20397;-69
2022/06/09 08:19:36;;;;;;;;;;;;;;;26.43;30.27;99908.88;5096386;28;20316;-70
2022/06/09 08:22:01;;;;;;;;;;;;;;;26.44;30.17;99912.44;5096539;28;19920;-69
2022/06/09 08:24:27;;;;;;;;;;;;;;;26.43;30.07;99919.03;5098107;28;19917;-68
2022/06/09 08:26:52;;;;;;;;;;;;;;;26.49;30.32;99916.97;5096828;28;20282;-68
2022/06/09 08:29:17;;;;;;;;;;;;;;;26.43;30.50;99919.81;5096425;28;19939;-74
2022/06/09 08:31:43;;;;;;;;;;;;;;;26.42;30.64;99920.97;5078974;28;19920;-75
2022/06/09 08:34:09;;;;;;;;;;;;;;;26.37;30.69;99915.59;5078683;28;19916;-75
2022/06/09 08:36:35;;;;;;;;;;;;;;;26.43;30.60;99917.09;5096729;28;19917;-75
2022/06/09 08:39:00;;;;;;;;;;;;;;;26.40;30.48;99916.88;5096715;28;20355;-75
2022/06/09 08:41:29;;;;;;;;;;;;;;;26.33;30.76;99922.78;5078174;28;19960;-75
2022/06/09 08:43:58;;;;;;;;;;;;;;;26.34;30.76;99920.88;5097025;28;19965;-75
2022/06/09 08:46:25;;;;;;;;;;;;;;;26.36;30.87;99929.59;5078370;28;19943;-75
2022/06/09 08:48:50;;;;;;;;;;;;;;;26.33;31.04;99931.00;5096072;28;20021;-75
2022/06/09 08:51:30;;;;;;;;;;;;;;;26.37;30.64;99928.44;5077739;28;20325;-75
2022/06/09 08:53:58;;;;;;;;;;;;;;;26.35;30.57;99931.50;5077432;28;19916;-74
2022/06/09 08:56:26;;;;;;;;;;;;;;;26.33;30.52;99928.25;5077868;28;19926;-74
2022/06/09 08:58:56;;;;;;;;;;;;;;;26.36;30.58;99929.59;5096204;28;19990;-74
2022/06/09 09:01:36;;;;;;;;;;;;;;;26.35;30.58;99930.69;5098636;28;19927;-74
2022/06/09 09:04:02;;;;;;;;;;;;;;;26.29;30.78;99927.25;5079641;28;19916;-75
2022/06/09 09:06:29;;;;;;;;;;;;;;;26.30;30.62;99928.88;5077434;28;20374;-76
2022/06/09 09:09:07;;;;;;;;;;;;;;;26.27;30.71;99923.19;5077926;28;19947;-77
2022/06/09 09:11:35;;;;;;;;;;;;;;;26.24;30.61;99922.66;5077240;28;20274;-76
2022/06/09 09:14:03;;;;;;;;;;;;;;;26.29;30.85;99923.72;5095974;28;20011;-76
2022/06/09 09:16:34;;;;;;;;;;;;;;;26.31;30.64;99929.69;5096052;28;19969;-75
2022/06/09 09:19:20;;;;;;;;;;;;;;;26.32;30.75;99931.28;5095774;28;19939;-76
2022/06/09 09:21:45;;;;;;;;;;;;;;;26.32;30.72;99926.66;5095712;28;19917;-75
2022/06/09 09:24:26;;;;;;;;;;;;;;;26.24;30.68;99922.66;5095702;28;19947;-75
2022/06/09 09:27:10;;;;;;;;;;;;;;;26.25;30.80;99918.03;5095382;28;19920;-72
2022/06/09 09:29:41;;;;;;;;;;;;;;;26.23;30.81;99917.50;5098119;28;19923;-71
2022/06/09 09:32:09;;;;;;;;;;;;;;;26.28;30.85;99913.84;5103771;28;19916;-73
2022/06/09 09:34:36;;;;;;;;;;;;;;;26.32;30.57;99912.13;5077594;28;19916;-73
2022/06/09 09:37:22;;;;;;;;;;;;;;;26.24;30.78;99919.94;5095168;28;19917;-72
2022/06/09 09:39:50;;;;;;;;;;;;;;;26.23;30.72;99917.50;5094222;28;19927;-73
2022/06/09 09:42:19;;;;;;;;;;;;;;;26.22;30.58;99921.38;5094677;28;19922;-73
2022/06/09 09:45:00;;;;;;;;;;;;;;;26.22;30.71;99915.88;5076450;28;19916;-73
2022/06/09 09:47:25;;;;;;;;;;;;;;;26.25;30.86;99909.81;5094651;28;19916;-73
2022/06/09 09:49:50;;;;;;;;;;;;;;;26.22;30.81;99922.16;5094567;28;19916;-72
2022/06/09 09:52:29;;;;;;;;;;;;;;;26.25;30.83;99909.81;5094613;28;19970;-72
2022/06/09 09:54:54;;;;;;;;;;;;;;;26.26;30.45;99911.41;5094529;28;19926;-72
2022/06/09 09:57:20;;;;;;;;;;;;;;;26.29;30.47;99920.97;5094338;28;20281;-72
2022/06/09 09:59:46;;;;;;;;;;;;;;;26.26;30.45;99911.41;5094209;28;19959;-72
2022/06/09 10:08:38;;;;;;;;;;;;;;;26.23;30.66;99907.38;5094314;28;19974;-73
2022/06/09 10:11:53;;;;;;;;;;;;;;;26.18;30.46;99907.47;5078428;28;19920;-72
2022/06/09 10:13:52;;;;;;;;;;;;;;;26.27;30.45;99917.69;5093796;28;20290;-73
2022/06/09 10:16:18;;;;;;;;;;;;;;;26.39;30.22;99921.56;5093481;28;19931;-72
2022/06/09 10:18:44;;;;;;;;;;;;;;;26.52;29.88;99921.84;5093856;28;19923;-72
2022/06/09 10:21:10;;;;;;;;;;;;;;;26.48;29.87;99918.13;5075971;28;20397;-72
2022/06/09 10:23:47;;;;;;;;;;;;;;;26.49;29.61;99914.25;5094122;28;20353;-72
2022/06/09 10:26:14;;;;;;;;;;;;;;;26.44;29.66;99912.44;5093465;28;19920;-71
2022/06/09 10:28:55;;;;;;;;;;;;;;;26.39;29.81;99905.13;5094268;28;19986;-72
2022/06/09 10:31:39;;;;;;;;;;;;;;;26.37;29.89;99907.38;5093238;28;19916;-72
2022/06/09 10:34:23;;;;;;;;;;;;;;;26.35;29.98;99904.09;5093838;28;19959;-72
2022/06/09 10:36:52;;;;;;;;;;;;;;;26.22;30.15;99911.22;5094144;28;19922;-71
2022/06/09 10:39:31;;;;;;;;;;;;;;;26.31;30.35;99902.28;5075645;28;19946;-72
2022/06/09 10:41:57;;;;;;;;;;;;;;;26.34;30.22;99905.22;5076228;28;19916;-72
2022/06/09 10:44:26;;;;;;;;;;;;;;;26.30;30.23;99908.88;5075719;28;20499;-73
2022/06/09 10:55:32;;;;;;;;;;;;;;;26.47;29.72;99905.53;5078549;28;19927;-72
2022/06/09 10:57:57;;;;;;;;;;;;;;;26.47;29.61;99911.81;5078076;28;20003;-71
2022/06/09 11:00:28;;;;;;;;;;;;;;;26.51;29.71;99903.78;5093395;28;20077;-72
2022/06/09 11:02:54;;;;;;;;;;;;;;;26.34;29.84;99907.16;5093412;28;19921;-72
2022/06/09 11:05:21;;;;;;;;;;;;;;;26.42;29.63;99909.16;5093444;28;19923;-72
2022/06/09 11:07:46;;;;;;;;;;;;;;;26.37;29.70;99918.31;5075807;28;20234;-72
2022/06/09 11:10:14;;;;;;;;;;;;;;;26.32;29.98;99915.69;5093426;28;19999;-72
2022/06/09 11:12:45;;;;;;;;;;;;;;;26.36;29.92;99915.88;5093902;28;19916;-71
2022/06/09 11:15:20;;;;;;;;;;;;;;;26.37;29.58;99923.81;5093860;28;19924;-70
2022/06/09 11:17:57;;;;;;;;;;;;;;;26.37;29.67;99921.06;5075076;28;19919;-69
2022/06/09 11:20:22;;;;;;;;;;;;;;;26.42;29.60;99917.38;5075108;28;19916;-69
2022/06/09 11:22:57;;;;;;;;;;;;;;;26.38;29.53;99914.44;5093381;28;19922;-69
2022/06/09 11:25:29;;;;;;;;;;;;;;;26.39;29.38;99915.28;5074880;28;19987;-69
2022/06/09 11:27:59;;;;;;;;;;;;;;;26.28;29.64;99911.13;5075022;28;19964;-70
2022/06/09 11:30:30;;;;;;;;;;;;;;;26.35;29.30;99906.84;5093267;28;19920;-69
2022/06/09 11:33:02;;;;;;;;;;;;;;;26.41;29.63;99907.56;5075165;28;19969;-70
2022/06/09 11:35:37;;;;;;;;;;;;;;;26.43;29.25;99906.13;5075269;28;19917;-69
2022/06/09 11:38:20;;;;;;;;;;;;;;;26.33;29.34;99917.28;5092893;28;20290;-69
2022/06/09 11:41:05;;;;;;;;;;;;;;;26.25;29.45;99909.81;5093136;28;19970;-69
2022/06/09 11:43:48;;;;;;;;;;;;;;;26.20;29.73;99907.97;5093806;28;19982;-69
2022/06/09 11:46:18;;;;;;;;;;;;;;;26.21;29.87;99914.25;5096931;28;20331;-70
2022/06/09 11:48:47;;;;;;;;;;;;;;;26.28;29.61;99914.66;5078964;28;19981;-68
2022/06/09 11:51:15;;;;;;;;;;;;;;;26.26;29.72;99916.09;5078876;28;19916;-69
2022/06/09 11:53:44;;;;;;;;;;;;;;;26.38;29.51;99910.91;5079178;28;19922;-68
2022/06/09 11:56:34;;;;;;;;;;;;;;;26.38;29.29;99914.44;5097147;28;19916;-69
2022/06/09 11:59:00;;;;;;;;;;;;;;;26.37;29.42;99921.06;5097426;28;19924;-69
2022/06/09 12:01:31;;;;;;;;;;;;;;;26.39;29.22;99934.47;5096873;28;19924;-69
2022/06/09 12:04:15;;;;;;;;;;;;;;;26.40;29.15;99933.31;5096843;28;20362;-68
2022/06/09 12:07:00;;;;;;;;;;;;;;;26.38;29.22;99936.38;5096784;28;20393;-69
2022/06/09 12:09:41;;;;;;;;;;;;;;;26.40;29.08;99934.13;5078621;28;19923;-69
2022/06/09 12:12:27;;;;;;;;;;;;;;;26.38;29.05;99938.31;5097228;28;19916;-69
2022/06/09 12:15:22;;;;;;;;;;;;;;;26.36;29.21;99927.66;5097285;28;19924;-69
2022/06/09 12:17:57;;;;;;;;;;;;;;;26.36;29.24;99919.44;5014557;28;19967;-69
2022/06/09 12:20:36;;;;;;;;;;;;;;;26.29;29.31;99926.44;5014394;28;19917;-70
2022/06/09 12:23:20;;;;;;;;;;;;;;;26.32;29.31;99917.59;5014416;28;19956;-69
2022/06/09 12:25:46;;;;;;;;;;;;;;;26.35;29.11;99920.53;5014285;28;19921;-69
2022/06/09 12:28:29;;;;;;;;;;;;;;;26.35;29.05;99917.78;4998233;28;19996;-69
2022/06/09 12:31:11;;;;;;;;;;;;;;;26.34;29.33;99918.13;5014560;28;20368;-69
2022/06/09 12:33:36;;;;;;;;;;;;;;;26.33;29.32;99925.50;5014376;28;19921;-69
2022/06/09 12:36:08;;;;;;;;;;;;;;;26.34;29.44;99929.09;5014393;28;20369;-69
2022/06/09 12:38:40;;;;;;;;;;;;;;;26.34;29.11;99918.94;5013565;28;19953;-69
2022/06/09 12:41:32;;;;;;;;;;;;;;;26.35;29.41;99930.69;5034008;28;19925;-69
2022/06/09 12:44:17;;;;;;;;;;;;;;;26.35;29.41;99928.75;5030915;28;19971;-69
2022/06/09 12:46:42;;;;;;;;;;;;;;;26.35;29.38;99942.44;4974815;28;19918;-69
2022/06/09 12:49:15;;;;;;;;;;;;;;;26.33;29.05;99950.16;4975182;28;19934;-69
2022/06/09 12:51:40;;;;;;;;;;;;;;;26.31;29.40;99946.94;4975089;28;20361;-69
2022/06/09 12:54:17;;;;;;;;;;;;;;;26.33;29.39;99949.38;4992927;28;19953;-69
2022/06/09 12:56:44;;;;;;;;;;;;;;;26.30;29.18;99948.06;5013872;28;19917;-68
2022/06/09 12:59:22;;;;;;;;;;;;;;;26.30;29.35;99947.22;5014011;28;19929;-69
2022/06/09 13:01:55;;;;;;;;;;;;;;;26.31;29.34;99946.94;5014257;28;19949;-69
2022/06/09 13:04:22;;;;;;;;;;;;;;;26.35;29.36;99952.59;5013753;28;19918;-69
2022/06/09 13:06:48;;;;;;;;;;;;;;;26.28;29.21;99957.69;5013737;28;19952;-69
2022/06/09 13:09:13;;;;;;;;;;;;;;;26.28;29.51;99953.00;5013805;28;20025;-71
2022/06/09 13:14:27;;;;;;;;;;;;;;;26.24;29.45;99962.94;5013883;28;19936;-69
2022/06/09 13:16:56;;;;;;;;;;;;;;;26.22;29.61;99965.19;5013792;28;19917;-69
2022/06/09 13:19:21;;;;;;;;;;;;;;;26.25;29.69;99970.06;5013556;28;19918;-70
2022/06/09 13:21:47;;;;;;;;;;;;;;;26.21;29.51;99969.84;5014191;28;19917;-70
2022/06/09 13:24:23;;;;;;;;;;;;;;;26.20;29.47;99961.94;5068481;28;19939;-69